Time;durP1;ratioP1;P1;durP2;ratioP2;P2;SDS_P1;SDS_P2;PMS_P1;PMS_P2;Temp;Humidity;BMP_temperature;BMP_pressure;BME280_temperature;BME280_humidity;BME280_pressure;Samples;Min_cycle;Max_cycle;Signal;HPM_P1;HPM_P2
2021/09/02 00:02:06;;;;;;;9.28;5.85;;;;;;;15.74;78.14;99052.75;1679349;85;22050;-73
2021/09/02 00:04:32;;;;;;;8.53;5.42;;;;;;;15.74;78.27;99051.95;1659408;85;21483;-72
2021/09/02 00:06:59;;;;;;;8.13;5.53;;;;;;;15.73;78.36;99055.78;1679328;85;21055;-72
2021/09/02 00:09:26;;;;;;;6.37;4.78;;;;;;;15.67;78.57;99053.17;1678624;85;21003;-72
2021/09/02 00:11:52;;;;;;;7.30;4.90;;;;;;;15.64;78.83;99056.45;1675136;85;21061;-72
2021/09/02 00:14:19;;;;;;;5.37;4.85;;;;;;;15.63;79.01;99058.91;1663849;85;21267;-72
2021/09/02 00:16:47;;;;;;;8.20;4.62;;;;;;;15.63;79.16;99051.35;1659267;85;21041;-72
2021/09/02 00:19:14;;;;;;;8.30;4.90;;;;;;;15.64;79.37;99055.09;1678490;85;21076;-74
2021/09/02 00:21:40;;;;;;;5.40;4.72;;;;;;;15.63;79.50;99064.91;1659832;85;21077;-73
2021/09/02 00:24:06;;;;;;;6.45;4.15;;;;;;;15.59;79.77;99054.38;1679407;85;21025;-77
2021/09/02 00:26:33;;;;;;;7.55;4.87;;;;;;;15.56;79.99;99057.70;1679373;85;21911;-75
2021/09/02 00:28:59;;;;;;;6.55;5.15;;;;;;;15.53;80.32;99061.82;1673794;84;21018;-72
2021/09/02 00:31:27;;;;;;;5.17;4.45;;;;;;;15.52;80.46;99060.20;1680418;85;21493;-73
2021/09/02 00:33:54;;;;;;;9.90;5.15;;;;;;;15.53;80.50;99064.53;1710532;83;20912;-74
2021/09/02 00:36:20;;;;;;;6.37;5.03;;;;;;;15.51;80.64;99062.66;1682152;85;21097;-72
2021/09/02 00:38:47;;;;;;;6.90;5.53;;;;;;;15.48;80.88;99060.52;1679626;85;22028;-78
2021/09/02 00:41:14;;;;;;;6.75;5.10;;;;;;;15.43;81.17;99060.61;1669222;85;20998;-77
2021/09/02 00:43:42;;;;;;;5.17;4.22;;;;;;;15.38;81.68;99051.20;1682109;85;20954;-78
2021/09/02 00:46:10;;;;;;;7.55;4.58;;;;;;;15.37;81.96;99060.42;1647996;86;21081;-78
2021/09/02 00:48:37;;;;;;;6.28;4.62;;;;;;;15.37;82.12;99071.27;1686251;83;21011;-74
2021/09/02 00:51:04;;;;;;;10.23;5.97;;;;;;;15.37;82.22;99072.63;1689623;83;21296;-77
2021/09/02 00:53:33;;;;;;;7.70;4.97;;;;;;;15.36;82.45;99066.94;1712512;82;21382;-74
2021/09/02 00:56:01;;;;;;;5.87;4.42;;;;;;;15.36;82.65;99068.30;1714328;82;21084;-73
2021/09/02 00:58:27;;;;;;;6.72;5.25;;;;;;;15.33;82.90;99068.09;1737639;82;20975;-80
2021/09/02 01:00:54;;;;;;;8.48;5.03;;;;;;;15.30;83.23;99068.70;1736563;82;20963;-78
2021/09/02 01:03:20;;;;;;;5.35;4.33;;;;;;;15.25;83.40;99073.06;1737185;82;21042;-81
2021/09/02 01:05:52;;;;;;;7.55;5.17;;;;;;;15.23;83.80;99073.13;1737130;82;20972;-83
2021/09/02 01:08:19;;;;;;;8.00;6.15;;;;;;;15.20;83.98;99079.14;1737154;82;20998;-87
2021/09/02 01:10:49;;;;;;;9.60;5.65;;;;;;;15.18;84.08;99074.56;1714435;82;21066;-77
2021/09/02 01:13:20;;;;;;;5.97;4.75;;;;;;;15.15;84.26;99074.61;1737215;82;21546;-81
2021/09/02 01:15:50;;;;;;;6.80;4.75;;;;;;;15.13;84.52;99071.92;1692391;83;21041;-86
2021/09/02 01:18:17;;;;;;;7.85;4.75;;;;;;;15.12;84.70;99075.18;1694289;83;21022;-83
2021/09/02 01:20:45;;;;;;;9.68;6.15;;;;;;;15.12;84.76;99079.78;1711597;83;21608;-83
2021/09/02 01:23:17;;;;;;;7.33;5.42;;;;;;;15.08;84.94;99073.36;1667477;85;21068;-78
2021/09/02 01:25:45;;;;;;;8.48;5.22;;;;;;;15.04;85.14;99072.34;1712874;83;21538;-74
2021/09/02 01:28:11;;;;;;;7.97;5.47;;;;;;;15.02;85.25;99077.23;1681668;85;21822;-72
2021/09/02 01:30:39;;;;;;;6.03;4.78;;;;;;;15.00;85.39;99079.45;1712409;83;20973;-72
2021/09/02 01:33:11;;;;;;;7.05;5.20;;;;;;;14.99;85.60;99075.93;1677840;85;20997;-72
2021/09/02 01:35:37;;;;;;;5.85;4.60;;;;;;;14.97;85.78;99067.28;1730443;82;21120;-71
2021/09/02 01:38:06;;;;;;;4.78;4.03;;;;;;;14.98;85.87;99072.95;1715541;83;21539;-71
2021/09/02 01:40:40;;;;;;;6.37;5.25;;;;;;;14.99;85.95;99075.12;1725747;83;21793;-71
2021/09/02 01:43:08;;;;;;;8.08;6.33;;;;;;;14.97;86.07;99071.34;1730399;83;21041;-72
2021/09/02 01:45:36;;;;;;;6.37;5.67;;;;;;;14.93;86.23;99074.38;1710968;83;21014;-72
2021/09/02 01:48:03;;;;;;;5.70;4.58;;;;;;;14.91;86.51;99067.67;1728238;82;21131;-72
2021/09/02 01:50:33;;;;;;;7.60;5.05;;;;;;;14.89;86.73;99081.48;1730320;83;21014;-72
2021/09/02 01:53:04;;;;;;;6.87;5.22;;;;;;;14.89;86.77;99072.56;1723922;83;21076;-71
2021/09/02 01:55:30;;;;;;;6.33;4.95;;;;;;;14.90;86.89;99065.51;1687373;84;20999;-71
2021/09/02 01:57:57;;;;;;;6.90;5.05;;;;;;;14.91;86.91;99063.61;1707770;84;21068;-72
2021/09/02 02:00:24;;;;;;;6.50;5.70;;;;;;;14.91;86.94;99070.38;1707858;83;21054;-72
2021/09/02 02:02:51;;;;;;;7.10;5.25;;;;;;;14.91;86.97;99063.61;1711483;83;21510;-73
2021/09/02 02:05:17;;;;;;;6.42;5.28;;;;;;;14.89;87.09;99064.44;1711009;83;22114;-70
2021/09/02 02:07:44;;;;;;;6.78;5.30;;;;;;;14.88;87.18;99066.33;1711074;83;20958;-69
2021/09/02 02:10:14;;;;;;;5.50;4.10;;;;;;;14.89;87.29;99064.44;1710998;83;21041;-70
2021/09/02 02:12:42;;;;;;;5.67;5.17;;;;;;;14.90;87.32;99068.77;1707921;84;21037;-71
2021/09/02 02:15:10;;;;;;;5.58;5.03;;;;;;;14.89;87.29;99071.20;1726407;82;21006;-71
2021/09/02 02:17:38;;;;;;;10.03;5.90;;;;;;;14.90;87.33;99066.05;1717514;83;21093;-71
2021/09/02 02:20:07;;;;;;;7.20;5.15;;;;;;;14.90;87.35;99064.70;1730305;83;20985;-71
2021/09/02 02:22:34;;;;;;;6.17;4.97;;;;;;;14.87;87.45;99068.00;1730481;82;21017;-70
2021/09/02 02:25:00;;;;;;;7.95;5.00;;;;;;;14.84;87.64;99066.13;1711109;83;21095;-70
2021/09/02 02:27:27;;;;;;;7.53;6.75;;;;;;;14.85;87.80;99064.23;1711253;83;21006;-71
2021/09/02 02:29:53;;;;;;;9.28;5.28;;;;;;;14.83;87.88;99067.22;1706212;84;21247;-70
2021/09/02 02:32:19;;;;;;;6.62;5.83;;;;;;;14.85;87.95;99065.58;1692373;84;21015;-70
2021/09/02 02:34:46;;;;;;;6.15;5.37;;;;;;;14.87;87.96;99070.71;1694200;84;20991;-71
2021/09/02 02:37:12;;;;;;;7.70;6.12;;;;;;;14.88;87.97;99073.10;1682635;84;21024;-71
2021/09/02 02:39:38;;;;;;;5.90;4.80;;;;;;;14.87;88.11;99078.25;1733854;81;21025;-72
2021/09/02 02:42:06;;;;;;;5.87;5.28;;;;;;;14.84;88.24;99082.91;1721400;83;21084;-71
2021/09/02 02:44:34;;;;;;;8.50;5.60;;;;;;;14.82;88.52;99083.20;1693920;84;21591;-71
2021/09/02 02:47:01;;;;;;;6.12;5.42;;;;;;;14.83;88.74;99087.52;1723496;83;21800;-71
2021/09/02 02:49:27;;;;;;;10.35;5.92;;;;;;;14.83;88.85;99076.69;1688556;84;21061;-71
2021/09/02 02:51:54;;;;;;;5.95;5.35;;;;;;;14.84;88.96;99087.78;1674550;85;21012;-70
2021/09/02 02:54:20;;;;;;;8.18;5.97;;;;;;;14.86;89.02;99086.15;1674644;85;21034;-71
2021/09/02 02:56:47;;;;;;;6.37;5.80;;;;;;;14.86;88.99;99077.22;1681024;84;20955;-70
2021/09/02 02:59:15;;;;;;;6.90;5.45;;;;;;;14.85;88.94;99089.95;1743030;81;20909;-71
2021/09/02 03:01:41;;;;;;;11.45;5.25;;;;;;;14.83;88.80;99089.42;1734866;82;21033;-71
2021/09/02 03:04:07;;;;;;;7.03;6.12;;;;;;;14.83;88.71;99084.00;1695807;83;21025;-71
2021/09/02 03:06:34;;;;;;;5.97;5.37;;;;;;;14.82;88.58;99079.68;1712005;83;21262;-71
2021/09/02 03:09:02;;;;;;;8.50;6.35;;;;;;;14.80;88.50;99086.77;1727008;82;21498;-72
2021/09/02 03:11:32;;;;;;;6.37;5.78;;;;;;;14.81;88.35;99073.48;1742276;81;21057;-71
2021/09/02 03:14:01;;;;;;;7.20;5.75;;;;;;;14.82;88.17;99080.48;1723412;83;21034;-71
2021/09/02 03:16:27;;;;;;;6.45;5.85;;;;;;;14.83;88.07;99076.69;1712630;81;21057;-71
2021/09/02 03:18:53;;;;;;;9.63;6.42;;;;;;;14.83;87.94;99088.88;1710877;83;21120;-71
2021/09/02 03:21:20;;;;;;;6.62;5.70;;;;;;;14.83;87.89;99075.88;1695591;83;20997;-70
2021/09/02 03:23:47;;;;;;;7.97;6.47;;;;;;;14.83;87.86;99084.00;1695743;83;21077;-71
2021/09/02 03:26:14;;;;;;;8.93;6.08;;;;;;;14.81;87.81;99079.45;1663101;86;20972;-71
2021/09/02 03:28:40;;;;;;;11.28;6.08;;;;;;;14.82;87.86;99075.62;1669134;85;21051;-72
2021/09/02 03:31:07;;;;;;;7.12;5.47;;;;;;;14.84;87.77;99086.43;1660893;85;21399;-72
2021/09/02 03:33:33;;;;;;;6.33;5.67;;;;;;;14.84;87.75;99085.08;1679843;84;21008;-71
2021/09/02 03:36:01;;;;;;;5.60;4.85;;;;;;;14.82;87.70;99083.74;1704293;83;21358;-71
2021/09/02 03:38:29;;;;;;;6.03;5.30;;;;;;;14.80;87.82;99088.12;1705404;83;20975;-71
2021/09/02 03:40:55;;;;;;;9.85;5.55;;;;;;;14.79;87.90;99091.91;1710477;83;21037;-71
2021/09/02 03:43:21;;;;;;;6.25;5.28;;;;;;;14.77;87.85;99084.63;1710551;83;21142;-71
2021/09/02 03:45:48;;;;;;;7.87;6.15;;;;;;;14.76;88.03;99080.33;1709861;83;21506;-70
2021/09/02 03:48:15;;;;;;;9.75;5.83;;;;;;;14.78;87.98;99082.72;1655803;85;21028;-71
2021/09/02 03:50:43;;;;;;;9.85;6.22;;;;;;;14.77;87.96;99098.73;1680142;85;21028;-70
2021/09/02 03:53:09;;;;;;;5.83;5.05;;;;;;;14.74;87.94;99089.27;1655908;85;21591;-72
2021/09/02 03:55:36;;;;;;;7.83;5.83;;;;;;;14.75;87.91;99084.67;1680229;84;21182;-71
2021/09/02 03:58:04;;;;;;;7.95;4.92;;;;;;;14.74;87.89;99093.33;1681846;84;21079;-72
2021/09/02 04:00:31;;;;;;;6.37;5.20;;;;;;;14.73;87.77;99091.72;1638182;85;21074;-70
2021/09/02 04:02:57;;;;;;;6.67;5.33;;;;;;;14.73;87.73;99089.02;1684118;85;21090;-71
2021/09/02 04:05:25;;;;;;;7.60;4.78;;;;;;;14.75;87.77;99095.50;1631675;86;21067;-72
2021/09/02 04:07:52;;;;;;;7.83;5.17;;;;;;;14.77;87.51;99100.09;1633372;86;21179;-71
2021/09/02 04:10:20;;;;;;;6.90;4.95;;;;;;;14.76;87.27;99108.75;1655867;86;21042;-71
2021/09/02 04:12:47;;;;;;;5.80;5.12;;;;;;;14.72;87.13;99113.11;1604596;88;21515;-71
2021/09/02 04:15:13;;;;;;;9.45;5.75;;;;;;;14.71;87.23;99110.17;1658926;85;20999;-70
2021/09/02 04:17:40;;;;;;;10.80;5.80;;;;;;;14.71;87.35;99132.37;1707897;83;21594;-71
2021/09/02 04:20:08;;;;;;;7.05;5.50;;;;;;;14.68;87.22;99118.04;1688353;83;21185;-72
2021/09/02 04:22:35;;;;;;;5.08;4.58;;;;;;;14.67;87.33;99133.50;1710439;83;20999;-70
2021/09/02 04:25:01;;;;;;;9.48;4.95;;;;;;;14.67;87.23;99122.67;1706841;83;21074;-71
2021/09/02 04:27:27;;;;;;;5.80;4.42;;;;;;;14.67;87.59;99134.86;1702306;83;21125;-70
2021/09/02 04:29:54;;;;;;;6.37;5.25;;;;;;;14.71;87.70;99125.60;1710005;83;21531;-71
2021/09/02 04:32:21;;;;;;;7.25;5.03;;;;;;;14.71;87.36;99123.70;1676580;85;21200;-71
2021/09/02 04:34:47;;;;;;;5.90;5.08;;;;;;;14.71;86.94;99120.19;1686936;84;21078;-71
2021/09/02 04:37:13;;;;;;;6.80;4.15;;;;;;;14.71;86.97;99122.89;1686929;84;21086;-71
2021/09/02 04:39:40;;;;;;;6.05;4.53;;;;;;;14.71;86.96;99127.77;1687710;84;21054;-72
2021/09/02 04:42:06;;;;;;;6.50;4.40;;;;;;;14.70;86.68;99150.51;1668895;85;21038;-71
2021/09/02 04:44:33;;;;;;;7.83;5.40;;;;;;;14.70;86.55;99126.14;1650776;85;21027;-72
2021/09/02 04:46:59;;;;;;;4.95;4.45;;;;;;;14.71;86.42;99137.23;1649160;86;21535;-71
2021/09/02 04:49:25;;;;;;;6.80;4.78;;;;;;;14.70;85.73;99135.62;1649873;86;20968;-72
2021/09/02 04:51:52;;;;;;;9.05;4.85;;;;;;;14.70;85.62;99129.40;1670053;86;21054;-71
2021/09/02 04:54:19;;;;;;;6.50;4.85;;;;;;;14.68;85.77;99131.03;1649248;86;21122;-71
2021/09/02 04:56:45;;;;;;;4.25;3.62;;;;;;;14.72;85.85;99142.88;1647654;87;21233;-72
2021/09/02 04:59:13;;;;;;;6.62;4.25;;;;;;;14.74;85.70;99127.17;1676631;85;20982;-71
2021/09/02 05:01:40;;;;;;;6.47;5.87;;;;;;;14.75;85.51;99127.44;1656209;85;21066;-74
2021/09/02 05:04:07;;;;;;;7.62;5.08;;;;;;;14.75;85.17;99136.10;1676324;85;21102;-72
2021/09/02 05:06:33;;;;;;;4.50;4.10;;;;;;;14.75;85.18;99125.27;1655285;85;21069;-72
2021/09/02 05:08:59;;;;;;;6.75;4.97;;;;;;;14.73;85.12;99155.33;1676539;84;21110;-72
2021/09/02 05:11:26;;;;;;;7.87;4.95;;;;;;;14.72;84.89;99126.64;1670553;85;21678;-71
2021/09/02 05:13:52;;;;;;;5.17;4.50;;;;;;;14.71;85.32;99135.08;1645782;86;21037;-71
2021/09/02 05:16:20;;;;;;;10.75;6.87;;;;;;;14.72;85.39;99128.00;1647712;86;21042;-72
2021/09/02 05:18:46;;;;;;;6.50;4.65;;;;;;;14.77;85.01;99128.51;1669251;85;21065;-72
2021/09/02 05:21:13;;;;;;;6.60;5.28;;;;;;;14.77;84.84;99135.28;1663774;85;21868;-71
2021/09/02 05:23:39;;;;;;;6.55;4.83;;;;;;;14.75;84.69;99127.98;1630073;87;21006;-70
2021/09/02 05:26:06;;;;;;;7.95;5.50;;;;;;;14.72;84.74;99133.41;1642695;85;21031;-71
2021/09/02 05:28:32;;;;;;;4.92;4.42;;;;;;;14.72;84.89;99136.12;1622308;87;21072;-70
2021/09/02 05:30:59;;;;;;;6.15;4.83;;;;;;;14.73;84.97;99135.03;1620665;88;21583;-71
2021/09/02 05:33:26;;;;;;;9.08;5.47;;;;;;;14.75;84.94;99126.63;1656123;85;21080;-71
2021/09/02 05:35:52;;;;;;;5.83;5.00;;;;;;;14.74;84.11;99136.64;1675736;85;20976;-70
2021/09/02 05:38:19;;;;;;;4.78;4.37;;;;;;;14.75;84.04;99132.84;1657966;85;21143;-71
2021/09/02 05:40:45;;;;;;;8.75;4.60;;;;;;;14.74;83.37;99126.36;1676615;84;21060;-71
2021/09/02 05:43:11;;;;;;;5.15;4.08;;;;;;;14.71;83.10;99126.41;1675972;84;21007;-71
2021/09/02 05:45:38;;;;;;;7.40;4.55;;;;;;;14.73;83.08;99140.44;1696526;84;21154;-71
2021/09/02 05:48:06;;;;;;;7.28;5.30;;;;;;;14.72;82.86;99132.06;1697200;84;20965;-70
2021/09/02 05:50:32;;;;;;;7.05;4.75;;;;;;;14.73;82.79;99134.22;1697437;84;20922;-71
2021/09/02 05:52:59;;;;;;;5.55;4.37;;;;;;;14.77;82.85;99132.56;1697524;84;21031;-73
2021/09/02 05:55:25;;;;;;;8.83;5.28;;;;;;;14.83;82.46;99144.38;1676714;84;21041;-73
2021/09/02 05:57:53;;;;;;;6.55;4.53;;;;;;;14.88;81.48;99144.05;1691052;83;20916;-72
2021/09/02 06:00:19;;;;;;;9.13;5.45;;;;;;;14.90;80.97;99142.67;1696090;84;21061;-72
2021/09/02 06:02:46;;;;;;;6.42;4.60;;;;;;;14.94;80.48;99138.83;1646626;87;21360;-71
2021/09/02 06:05:12;;;;;;;7.87;5.03;;;;;;;14.95;79.54;99141.80;1672788;85;21011;-72
2021/09/02 06:07:38;;;;;;;7.97;4.92;;;;;;;14.98;79.46;99150.68;1676400;84;21037;-71
2021/09/02 06:10:07;;;;;;;8.30;4.58;;;;;;;14.97;78.02;99143.65;1697412;84;21086;-71
2021/09/02 06:12:36;;;;;;;8.03;4.28;;;;;;;14.96;77.82;99178.62;1697510;84;20948;-72
2021/09/02 06:15:08;;;;;;;8.00;4.70;;;;;;;14.93;76.01;99140.73;1676676;84;21057;-72
2021/09/02 06:17:35;;;;;;;6.50;3.50;;;;;;;14.88;74.59;99148.11;1696499;84;21517;-72
2021/09/02 06:20:06;;;;;;;5.20;4.45;;;;;;;14.80;74.68;99161.21;1695988;84;21035;-72
2021/09/02 06:22:33;;;;;;;5.92;4.33;;;;;;;14.76;74.83;99148.00;1691877;84;21792;-72
2021/09/02 06:25:00;;;;;;;6.05;5.15;;;;;;;14.78;75.07;99160.69;1697445;84;20945;-72
2021/09/02 06:27:28;;;;;;;8.38;4.12;;;;;;;14.77;74.98;99167.77;1669956;84;21120;-71
2021/09/02 06:29:54;;;;;;;7.80;4.12;;;;;;;14.72;75.20;99149.66;1698141;84;21056;-73
2021/09/02 06:32:21;;;;;;;5.05;4.42;;;;;;;14.70;74.77;99153.77;1657739;83;21111;-70
2021/09/02 06:34:47;;;;;;;5.45;3.80;;;;;;;14.67;74.94;99195.77;1703149;83;21920;-73
2021/09/02 06:37:13;;;;;;;6.20;4.05;;;;;;;14.63;73.61;99182.52;1659183;83;21035;-71
2021/09/02 06:39:40;;;;;;;4.10;3.70;;;;;;;14.61;73.39;99158.20;1700754;83;21047;-74
2021/09/02 06:42:08;;;;;;;4.78;3.98;;;;;;;14.60;72.95;99164.16;1710909;83;21024;-73
2021/09/02 06:44:35;;;;;;;5.67;3.67;;;;;;;14.54;70.70;99178.84;1683550;84;21083;-74
2021/09/02 06:47:03;;;;;;;6.12;3.80;;;;;;;14.49;70.09;99174.83;1684038;85;21487;-72
2021/09/02 06:49:29;;;;;;;6.65;3.42;;;;;;;14.44;69.44;99174.08;1684049;85;21531;-73
2021/09/02 06:51:55;;;;;;;5.28;3.20;;;;;;;14.42;69.09;99185.21;1631615;86;21078;-73
2021/09/02 06:54:23;;;;;;;5.70;3.47;;;;;;;14.41;67.96;99189.00;1682056;85;20947;-71
2021/09/02 06:56:52;;;;;;;3.17;2.40;;;;;;;14.44;62.63;99210.61;1682178;85;21070;-72
2021/09/02 06:59:20;;;;;;;3.30;2.37;;;;;;;14.50;58.36;99187.28;1683169;85;21072;-72
2021/09/02 07:01:47;;;;;;;13.58;3.20;;;;;;;14.52;56.05;99204.05;1656010;85;21574;-72
2021/09/02 07:04:14;;;;;;;5.10;2.92;;;;;;;14.53;56.86;99215.10;1673201;85;21080;-73
2021/09/02 07:06:41;;;;;;;3.95;2.85;;;;;;;14.54;56.36;99168.02;1675449;85;21054;-74
2021/09/02 07:09:09;;;;;;;3.65;2.85;;;;;;;14.55;57.92;99200.75;1630797;86;21094;-74
2021/09/02 07:11:35;;;;;;;3.27;2.52;;;;;;;14.61;58.65;99192.03;1659928;85;21035;-72
2021/09/02 07:14:03;;;;;;;5.33;2.87;;;;;;;14.65;57.28;99240.44;1683963;85;21496;-74
2021/09/02 07:16:31;;;;;;;3.95;2.70;;;;;;;14.67;58.03;99181.41;1684306;85;21191;-73
2021/09/02 07:18:59;;;;;;;5.97;4.15;;;;;;;14.74;58.98;99190.78;1659983;85;21027;-72
2021/09/02 07:21:25;;;;;;;4.00;2.20;;;;;;;14.78;58.58;99200.48;1659737;85;21086;-72
2021/09/02 07:23:51;;;;;;;9.25;2.30;;;;;;;14.78;58.26;99214.02;1683609;85;21283;-72
2021/09/02 07:26:17;;;;;;;4.65;2.60;;;;;;;14.76;57.59;99199.44;1660111;85;21500;-73
2021/09/02 07:28:44;;;;;;;8.63;2.42;;;;;;;14.75;55.22;99203.23;1683796;85;21495;-73
2021/09/02 07:31:10;;;;;;;5.08;2.37;;;;;;;14.69;53.92;99231.45;1683786;85;21053;-74
2021/09/02 07:33:36;;;;;;;3.50;2.58;;;;;;;14.64;54.08;99217.16;1679796;84;21112;-72
2021/09/02 07:36:05;;;;;;;3.50;2.10;;;;;;;14.63;53.69;99210.13;1647226;87;20956;-73
2021/09/02 07:38:31;;;;;;;3.80;2.67;;;;;;;14.69;54.23;99206.28;1647562;86;21122;-73
2021/09/02 07:40:57;;;;;;;2.20;1.98;;;;;;;14.73;54.10;99162.09;1647886;87;21556;-72
2021/09/02 07:43:24;;;;;;;3.17;2.45;;;;;;;14.77;53.59;99201.02;1647546;86;21095;-72
2021/09/02 07:45:51;;;;;;;4.47;2.25;;;;;;;14.81;53.54;99180.97;1647358;86;21073;-74
2021/09/02 07:48:17;;;;;;;3.22;2.08;;;;;;;14.84;53.95;99182.55;1625323;86;21588;-73
2021/09/02 07:50:45;;;;;;;5.40;1.72;;;;;;;14.87;53.35;99232.59;1626065;87;21035;-72
2021/09/02 07:53:12;;;;;;;8.00;2.10;;;;;;;14.87;53.60;99184.42;1652209;86;21031;-73
2021/09/02 07:55:38;;;;;;;2.98;2.10;;;;;;;14.89;54.21;99216.06;1649004;86;21039;-74
2021/09/02 07:58:04;;;;;;;5.78;2.17;;;;;;;14.96;54.04;99184.03;1652990;85;21030;-73
2021/09/02 08:00:31;;;;;;;4.42;2.20;;;;;;;15.01;53.70;99173.91;1676527;85;21858;-73
2021/09/02 08:02:58;;;;;;;3.10;1.75;;;;;;;15.05;54.15;99203.95;1648794;86;21071;-73
2021/09/02 08:05:24;;;;;;;5.42;1.85;;;;;;;15.05;54.30;99223.72;1672591;84;21087;-73
2021/09/02 08:07:53;;;;;;;5.00;3.05;;;;;;;15.04;55.25;99203.69;1682661;84;21048;-74
2021/09/02 08:10:23;;;;;;;4.75;2.10;;;;;;;15.03;55.74;99188.53;1696776;84;21103;-73
2021/09/02 08:12:52;;;;;;;8.70;2.12;;;;;;;15.02;55.36;99207.22;1673898;84;21014;-74
2021/09/02 08:15:20;;;;;;;3.72;2.40;;;;;;;14.99;55.25;99247.08;1651862;86;21113;-73
2021/09/02 08:17:47;;;;;;;3.20;1.87;;;;;;;14.97;55.34;99210.00;1683635;84;20991;-72
2021/09/02 08:20:16;;;;;;;3.08;1.87;;;;;;;14.98;55.18;99192.66;1698051;84;21031;-72
2021/09/02 08:22:42;;;;;;;4.35;2.33;;;;;;;15.00;53.87;99202.12;1679950;84;21563;-72
2021/09/02 08:25:10;;;;;;;10.93;2.58;;;;;;;15.05;51.14;99245.39;1697629;84;21441;-73
2021/09/02 08:27:39;;;;;;;3.22;2.35;;;;;;;15.07;51.00;99193.07;1671529;85;21000;-72
2021/09/02 08:30:08;;;;;;;5.78;2.52;;;;;;;15.06;51.44;99200.16;1696478;84;21185;-74
2021/09/02 08:32:34;;;;;;;3.12;2.33;;;;;;;15.06;51.84;99185.26;1678640;84;21027;-72
2021/09/02 08:35:01;;;;;;;3.42;2.67;;;;;;;15.08;52.73;99215.55;1704462;83;21058;-73
2021/09/02 08:37:29;;;;;;;4.80;2.10;;;;;;;15.05;52.35;99207.47;1705855;84;20928;-72
2021/09/02 08:39:56;;;;;;;3.05;2.27;;;;;;;15.02;53.04;99186.91;1706127;84;20967;-72
2021/09/02 08:42:22;;;;;;;3.98;2.00;;;;;;;15.00;53.72;99189.93;1706112;84;21063;-72
2021/09/02 08:44:49;;;;;;;8.50;2.75;;;;;;;15.01;54.01;99190.16;1693863;84;21610;-72
2021/09/02 08:47:16;;;;;;;3.00;2.12;;;;;;;15.03;54.31;99185.27;1685152;84;21117;-73
2021/09/02 08:49:45;;;;;;;3.00;2.30;;;;;;;15.05;53.00;99202.05;1680398;85;21137;-73
2021/09/02 08:52:12;;;;;;;4.62;2.65;;;;;;;15.08;51.76;99200.11;1685752;84;21006;-73
2021/09/02 08:54:39;;;;;;;5.03;2.00;;;;;;;15.14;52.02;99210.33;1706276;84;21495;-73
2021/09/02 08:57:05;;;;;;;5.10;2.22;;;;;;;15.22;51.75;99210.48;1706018;83;21076;-72
2021/09/02 08:59:33;;;;;;;9.83;2.47;;;;;;;15.31;51.79;99192.20;1705978;84;21086;-72
2021/09/02 09:01:59;;;;;;;5.65;2.15;;;;;;;15.30;49.12;99191.39;1674218;84;21202;-71
2021/09/02 09:04:34;;;;;;;5.33;2.08;;;;;;;15.28;50.06;99212.58;1709723;83;21070;-71
2021/09/02 09:07:03;;;;;;;4.85;2.35;;;;;;;15.32;49.24;99193.82;1706185;84;21583;-73
2021/09/02 09:09:29;;;;;;;9.15;2.10;;;;;;;15.42;49.59;99184.20;1705728;83;21532;-76
2021/09/02 09:12:00;;;;;;;6.72;2.00;;;;;;;15.49;49.08;99198.20;1701907;84;20990;-79
2021/09/02 09:14:26;;;;;;;3.58;1.80;;;;;;;15.55;48.61;99173.98;1706139;83;21095;-83
2021/09/02 09:16:57;;;;;;;3.02;1.70;;;;;;;15.61;47.78;99237.88;1700530;83;21127;-90
2021/09/02 09:19:43;;;;;;;2.55;2.05;;;;;;;15.62;47.69;99187.44;1703157;84;20990;-82
2021/09/02 09:22:12;;;;;;;4.03;2.05;;;;;;;15.65;48.00;99200.94;1700809;84;21571;-77
2021/09/02 09:24:46;;;;;;;3.75;2.42;;;;;;;15.73;47.38;99187.28;1705811;84;21030;-76
2021/09/02 09:27:34;;;;;;;2.92;1.70;;;;;;;15.78;46.29;99200.76;1705978;84;20983;-71
2021/09/02 09:30:14;;;;;;;3.85;2.15;;;;;;;15.85;45.78;99199.81;1705083;83;20994;-73
2021/09/02 09:32:52;;;;;;;6.53;2.08;;;;;;;15.88;46.17;99201.92;1699305;84;20979;-78
2021/09/02 09:35:31;;;;;;;3.33;1.80;;;;;;;15.87;45.80;99218.77;1708575;83;21109;-79
2021/09/02 09:38:15;;;;;;;6.95;2.40;;;;;;;15.77;45.97;99220.29;1710441;83;21086;-78
2021/09/02 09:40:45;;;;;;;2.92;2.00;;;;;;;15.68;46.81;99194.95;1680196;85;21058;-78
2021/09/02 09:43:14;;;;;;;3.70;1.87;;;;;;;15.66;46.24;99215.56;1702162;83;20974;-76
2021/09/02 09:45:49;;;;;;;4.15;2.33;;;;;;;15.66;46.62;99211.50;1684451;83;21106;-70
2021/09/02 09:48:21;;;;;;;1.82;1.47;;;;;;;15.71;45.58;99217.39;1709361;83;21148;-72
2021/09/02 09:51:05;;;;;;;5.53;2.50;;;;;;;15.77;45.42;99209.98;1707254;83;22259;-82
2021/09/02 09:53:32;;;;;;;4.42;2.40;;;;;;;15.83;45.63;99197.39;1671818;84;21366;-84
2021/09/02 09:55:59;;;;;;;5.33;2.20;;;;;;;15.87;46.39;99201.14;1708393;83;20948;-78
2021/09/02 09:58:26;;;;;;;3.05;2.25;;;;;;;15.89;47.12;99220.62;1712100;83;21057;-73
2021/09/02 10:00:56;;;;;;;4.45;2.30;;;;;;;15.85;47.76;99222.32;1710052;83;20970;-75
2021/09/02 10:03:22;;;;;;;3.72;2.40;;;;;;;15.81;48.51;99240.28;1707931;83;21108;-72
2021/09/02 10:05:50;;;;;;;7.08;3.15;;;;;;;15.80;47.69;99229.17;1681699;83;21152;-73
2021/09/02 10:08:19;;;;;;;4.45;2.22;;;;;;;15.74;48.91;99220.05;1710476;83;21021;-72
2021/09/02 10:10:48;;;;;;;3.98;2.27;;;;;;;15.72;49.95;99233.92;1704300;83;21056;-73
2021/09/02 10:13:14;;;;;;;3.98;2.20;;;;;;;15.69;49.61;99229.88;1687545;83;21049;-75
2021/09/02 10:15:40;;;;;;;5.65;2.37;;;;;;;15.67;49.09;99244.30;1688066;83;21110;-75
2021/09/02 10:18:09;;;;;;;4.17;2.55;;;;;;;15.68;48.63;99235.61;1710528;83;20982;-75
2021/09/02 10:20:37;;;;;;;2.33;1.60;;;;;;;15.66;48.45;99237.26;1687340;83;21527;-78
2021/09/02 10:23:04;;;;;;;5.30;2.33;;;;;;;15.67;48.02;99232.09;1685449;83;21050;-70
2021/09/02 10:25:37;;;;;;;6.40;2.15;;;;;;;15.60;47.85;99239.78;1710368;83;21143;-71
2021/09/02 10:28:13;;;;;;;4.35;1.77;;;;;;;15.52;47.38;99250.48;1710477;83;21062;-72
2021/09/02 10:30:48;;;;;;;4.72;1.95;;;;;;;15.38;47.81;99261.76;1709689;83;21122;-71
2021/09/02 10:33:36;;;;;;;5.83;2.12;;;;;;;15.37;47.60;99243.88;1709109;83;20986;-70
2021/09/02 10:36:17;;;;;;;2.90;2.05;;;;;;;15.42;47.98;99247.88;1712172;83;21014;-71
2021/09/02 10:38:55;;;;;;;3.10;1.80;;;;;;;15.49;48.03;99251.82;1697012;83;21002;-73
2021/09/02 10:41:44;;;;;;;2.10;1.60;;;;;;;15.62;47.49;99236.23;1710482;83;21650;-72
2021/09/02 10:44:16;;;;;;;3.98;2.00;;;;;;;15.80;47.02;99254.94;1707607;83;21550;-73
2021/09/02 10:46:44;;;;;;;5.08;2.45;;;;;;;15.84;44.65;99264.64;1704073;84;21002;-79
2021/09/02 10:49:24;;;;;;;3.92;2.17;;;;;;;15.84;45.26;99265.99;1694415;83;21634;-75
2021/09/02 10:51:59;;;;;;;4.62;1.95;;;;;;;15.68;44.69;99258.08;1709317;82;20994;-71
2021/09/02 10:54:31;;;;;;;7.15;2.35;;;;;;;15.57;45.98;99265.31;1706906;83;21030;-73
2021/09/02 10:57:07;;;;;;;5.60;2.12;;;;;;;15.53;46.29;99269.72;1709594;83;22064;-72
2021/09/02 10:59:45;;;;;;;4.30;2.55;;;;;;;15.47;47.05;99281.69;1710063;83;21626;-73
2021/09/02 11:02:27;;;;;;;5.80;2.12;;;;;;;15.47;46.43;99274.37;1710244;83;21010;-73
2021/09/02 11:05:01;;;;;;;4.40;1.75;;;;;;;15.53;46.68;99265.11;1710058;83;21541;-77
2021/09/02 11:07:45;;;;;;;3.25;2.05;;;;;;;15.68;45.89;99265.44;1686252;83;21022;-80
2021/09/02 11:10:20;;;;;;;2.27;1.82;;;;;;;15.82;45.09;99251.94;1683971;83;21128;-76
2021/09/02 11:13:03;;;;;;;5.80;2.47;;;;;;;15.94;45.66;99284.83;1709864;83;21025;-74
2021/09/02 11:15:31;;;;;;;;;;;;;;;15.97;45.24;99285.61;1706996;83;20994;-79
2021/09/02 11:17:59;;;;;;;2.27;1.77;;;;;;;15.89;45.52;99291.14;1687548;83;20169;-74
2021/09/02 11:20:28;;;;;;;2.42;1.50;;;;;;;15.82;46.24;99327.33;1680828;85;21042;-82
2021/09/02 11:23:18;;;;;;;3.52;1.75;;;;;;;15.74;46.85;99307.63;1708241;83;21178;-82
2021/09/02 11:25:48;;;;;;;4.70;1.47;;;;;;;15.66;47.33;99282.53;1711392;83;21022;-77
2021/09/02 11:28:18;;;;;;;2.50;1.75;;;;;;;15.62;48.13;99297.78;1711191;83;21077;-72
2021/09/02 11:30:44;;;;;;;1.90;1.52;;;;;;;15.58;48.18;99310.30;1682254;85;20967;-74
2021/09/02 11:33:10;;;;;;;4.78;2.98;;;;;;;15.50;48.51;99349.66;1687650;83;21610;-72
2021/09/02 11:35:38;;;;;;;3.27;2.22;;;;;;;15.32;48.63;99348.27;1685536;82;20934;-73
2021/09/02 11:38:05;;;;;;;5.83;2.42;;;;;;;15.17;48.81;99367.67;1699316;84;21062;-74
2021/09/02 11:40:36;;;;;;;2.50;2.12;;;;;;;15.06;49.21;99326.09;1679163;85;21523;-77